KEVB/EVB METAR and TAF weather

Enter ICAO airport designator
Station Type Date Time Source
KEVB METAR 2022/05/26 01:47 UTC NOAA

KEVB 260147Z 14008KT 10SM CLR 25/23 A3011 RMK LAST


Station Type Date Time Source
KEVB Decoded METAR 2022/05/26 01:47 UTC NOAA

New Smyrna Beach, New Smyrna Beach Municipal Airport, FL, United States (KEVB) 29-03-20N 080-56-54W
May 25, 2022 - 09:47 PM EDT / 2022.05.26 0147 UTC
Wind: from the SE (140 degrees) at 9 MPH (8 KT):0
Visibility: 10 mile(s):0
Sky conditions: clear
Temperature: 77 F (25 C)
Dew Point: 73 F (23 C)
Relative Humidity: 88%
Pressure (altimeter): 30.11 in. Hg (1019 hPa)
ob: KEVB 260147Z 14008KT 10SM CLR 25/23 A3011 RMK LAST
cycle: 2

Station Type Date Time Source
KEVB TAF UTC NOAA

Error!

Example: see airport list